Terminal Aerodrome Forecast
Issued by NWS Cleveland, OH

Home | Current Version | Previous Version | Graphics & Text | Print | Product List | Glossary On
Versions: 1 2 3 4 5 6 7 8 9 10 11 12 13 14 15 16 17 18 19 20 21 22 23 24 25 26 27 28 29
000
FTUS41 KCLE 251903 AAB
TAFCLE
TAF AMD
KCLE 251903Z 2519/2624 05011KT 6SM HZ VCSH SCT060 BKN150
      TEMPO 2521/2601 5SM HZ
     FM260100 04011KT 5SM HZ VCSH BKN006 OVC040
     FM261700 14010KT 6SM -SHRA SCT008 OVC020=

USA.gov is the U.S. government's official web portal to all federal, state and local government web resources and services.